Terminal Aerodrome Forecast
Issued by NWS

Home | Current Version | Previous Version | Text Only | Print | Product List | Glossary Off
Versions: 1 2 3 4 5 6 7 8 9 10 11 12 13 14 15 16

021
FTUS42 KMHX 211131
TAFOAJ
TAF
KOAJ 211131Z 2112/2212 00000KT P6SM SCT060
      TEMPO 2112/2113 5SM BR
     FM211800 00000KT P6SM VCSH SCT050
      TEMPO 2118/2122 4SM TS BKN040CB BKN050
     FM212200 00000KT P6SM SCT040
     FM220900 00000KT 3SM BR FEW050
      AMD LTD TO CLD VIS AND WIND=

USA.gov is the U.S. government's official web portal to all federal, state and local government web resources and services.